sensor_id;sensor_type;location;lat;lon;timestamp;P1;durP1;ratioP1;P2;durP2;ratioP2
8929;SDS011;4500;49.074;9.110;2022-07-29T00:02:27;8.00;;;7.60;;
8929;SDS011;4500;49.074;9.110;2022-07-29T00:04:54;10.67;;;10.13;;
8929;SDS011;4500;49.074;9.110;2022-07-29T00:07:21;9.47;;;8.97;;
8929;SDS011;4500;49.074;9.110;2022-07-29T00:09:48;5.50;;;5.20;;
8929;SDS011;4500;49.074;9.110;2022-07-29T00:12:18;7.27;;;6.90;;
8929;SDS011;4500;49.074;9.110;2022-07-29T00:14:55;9.53;;;9.03;;
8929;SDS011;4500;49.074;9.110;2022-07-29T00:17:25;10.40;;;9.83;;
8929;SDS011;4500;49.074;9.110;2022-07-29T00:19:52;10.43;;;9.87;;
8929;SDS011;4500;49.074;9.110;2022-07-29T00:22:19;4.00;;;3.80;;
8929;SDS011;4500;49.074;9.110;2022-07-29T00:24:47;4.37;;;4.17;;
8929;SDS011;4500;49.074;9.110;2022-07-29T00:27:15;2.60;;;2.50;;
8929;SDS011;4500;49.074;9.110;2022-07-29T00:29:43;1.00;;;1.00;;
8929;SDS011;4500;49.074;9.110;2022-07-29T00:32:10;1.57;;;1.57;;
8929;SDS011;4500;49.074;9.110;2022-07-29T00:34:37;44.30;;;4.20;;
8929;SDS011;4500;49.074;9.110;2022-07-29T00:37:22;8.37;;;7.93;;
8929;SDS011;4500;49.074;9.110;2022-07-29T00:39:49;6.40;;;5.90;;
8929;SDS011;4500;49.074;9.110;2022-07-29T00:42:16;3.63;;;3.47;;
8929;SDS011;4500;49.074;9.110;2022-07-29T00:44:44;1.87;;;1.80;;
8929;SDS011;4500;49.074;9.110;2022-07-29T00:47:11;1.30;;;1.30;;
8929;SDS011;4500;49.074;9.110;2022-07-29T00:49:39;0.87;;;0.87;;
8929;SDS011;4500;49.074;9.110;2022-07-29T00:52:07;1.53;;;1.53;;
8929;SDS011;4500;49.074;9.110;2022-07-29T00:54:35;1.00;;;1.00;;
8929;SDS011;4500;49.074;9.110;2022-07-29T00:57:09;1.10;;;1.10;;
8929;SDS011;4500;49.074;9.110;2022-07-29T00:59:36;0.90;;;0.90;;
8929;SDS011;4500;49.074;9.110;2022-07-29T01:02:03;2.40;;;2.30;;
8929;SDS011;4500;49.074;9.110;2022-07-29T01:04:30;6.63;;;6.33;;
8929;SDS011;4500;49.074;9.110;2022-07-29T01:06:58;10.07;;;9.53;;
8929;SDS011;4500;49.074;9.110;2022-07-29T01:09:31;7.60;;;7.23;;
8929;SDS011;4500;49.074;9.110;2022-07-29T01:12:15;1.00;;;1.00;;
8929;SDS011;4500;49.074;9.110;2022-07-29T01:14:44;3.53;;;3.27;;
8929;SDS011;4500;49.074;9.110;2022-07-29T01:20:26;4.50;;;4.30;;
8929;SDS011;4500;49.074;9.110;2022-07-29T01:23:07;10.07;;;9.53;;
8929;SDS011;4500;49.074;9.110;2022-07-29T01:34:49;7.10;;;6.73;;
8929;SDS011;4500;49.074;9.110;2022-07-29T01:39:55;13.30;;;12.57;;
8929;SDS011;4500;49.074;9.110;2022-07-29T01:45:00;9.10;;;8.60;;
8929;SDS011;4500;49.074;9.110;2022-07-29T01:50:33;8.87;;;8.40;;
8929;SDS011;4500;49.074;9.110;2022-07-29T01:53:05;4.90;;;4.70;;
8929;SDS011;4500;49.074;9.110;2022-07-29T01:55:38;1.00;;;1.00;;
8929;SDS011;4500;49.074;9.110;2022-07-29T01:58:07;1.87;;;1.87;;
8929;SDS011;4500;49.074;9.110;2022-07-29T02:00:35;1.67;;;1.60;;
8929;SDS011;4500;49.074;9.110;2022-07-29T02:03:04;3.17;;;3.07;;
8929;SDS011;4500;49.074;9.110;2022-07-29T02:05:35;1.00;;;1.00;;
8929;SDS011;4500;49.074;9.110;2022-07-29T02:08:04;2.13;;;2.03;;
8929;SDS011;4500;49.074;9.110;2022-07-29T02:10:32;4.10;;;3.90;;
8929;SDS011;4500;49.074;9.110;2022-07-29T02:13:00;10.10;;;9.33;;
8929;SDS011;4500;49.074;9.110;2022-07-29T02:15:30;8.13;;;7.70;;
8929;SDS011;4500;49.074;9.110;2022-07-29T02:18:00;9.60;;;9.10;;
8929;SDS011;4500;49.074;9.110;2022-07-29T02:20:28;9.40;;;8.90;;
8929;SDS011;4500;49.074;9.110;2022-07-29T02:22:56;9.90;;;9.37;;
8929;SDS011;4500;49.074;9.110;2022-07-29T02:25:25;10.70;;;10.13;;
8929;SDS011;4500;49.074;9.110;2022-07-29T02:28:03;2.43;;;2.33;;
8929;SDS011;4500;49.074;9.110;2022-07-29T02:30:31;4.80;;;4.60;;
8929;SDS011;4500;49.074;9.110;2022-07-29T02:32:59;8.73;;;8.30;;
8929;SDS011;4500;49.074;9.110;2022-07-29T02:35:27;7.83;;;7.43;;
8929;SDS011;4500;49.074;9.110;2022-07-29T02:38:00;8.10;;;7.70;;
8929;SDS011;4500;49.074;9.110;2022-07-29T02:40:45;3.07;;;2.97;;
8929;SDS011;4500;49.074;9.110;2022-07-29T02:43:13;1.43;;;1.40;;
8929;SDS011;4500;49.074;9.110;2022-07-29T02:45:41;1.30;;;1.30;;
8929;SDS011;4500;49.074;9.110;2022-07-29T02:48:13;1.10;;;1.10;;
8929;SDS011;4500;49.074;9.110;2022-07-29T02:50:48;1.53;;;1.53;;
8929;SDS011;4500;49.074;9.110;2022-07-29T02:53:20;4.40;;;4.13;;
8929;SDS011;4500;49.074;9.110;2022-07-29T02:55:56;4.97;;;4.77;;
8929;SDS011;4500;49.074;9.110;2022-07-29T02:58:36;8.63;;;8.20;;
8929;SDS011;4500;49.074;9.110;2022-07-29T03:01:20;1.50;;;1.50;;
8929;SDS011;4500;49.074;9.110;2022-07-29T03:03:49;5.83;;;5.53;;
8929;SDS011;4500;49.074;9.110;2022-07-29T03:06:19;6.03;;;5.73;;
8929;SDS011;4500;49.074;9.110;2022-07-29T03:09:03;2.30;;;2.20;;
8929;SDS011;4500;49.074;9.110;2022-07-29T03:11:38;1.00;;;1.00;;
8929;SDS011;4500;49.074;9.110;2022-07-29T03:14:18;2.73;;;2.63;;
8929;SDS011;4500;49.074;9.110;2022-07-29T03:16:47;3.87;;;3.70;;
8929;SDS011;4500;49.074;9.110;2022-07-29T03:19:14;2.97;;;2.87;;
8929;SDS011;4500;49.074;9.110;2022-07-29T03:21:42;1.00;;;1.00;;
8929;SDS011;4500;49.074;9.110;2022-07-29T03:24:09;1.40;;;1.40;;
8929;SDS011;4500;49.074;9.110;2022-07-29T03:26:36;0.90;;;0.90;;
8929;SDS011;4500;49.074;9.110;2022-07-29T03:29:03;3.87;;;3.67;;
8929;SDS011;4500;49.074;9.110;2022-07-29T03:31:30;6.63;;;6.30;;
8929;SDS011;4500;49.074;9.110;2022-07-29T03:33:58;8.60;;;8.13;;
8929;SDS011;4500;49.074;9.110;2022-07-29T03:36:25;10.33;;;9.77;;
8929;SDS011;4500;49.074;9.110;2022-07-29T03:38:52;12.03;;;11.33;;
8929;SDS011;4500;49.074;9.110;2022-07-29T03:41:20;11.27;;;10.63;;
8929;SDS011;4500;49.074;9.110;2022-07-29T03:43:49;5.50;;;5.13;;
8929;SDS011;4500;49.074;9.110;2022-07-29T03:46:17;7.50;;;7.10;;
8929;SDS011;4500;49.074;9.110;2022-07-29T03:48:46;3.03;;;2.93;;
8929;SDS011;4500;49.074;9.110;2022-07-29T03:51:13;0.97;;;0.97;;
8929;SDS011;4500;49.074;9.110;2022-07-29T03:53:40;1.00;;;1.00;;
8929;SDS011;4500;49.074;9.110;2022-07-29T03:56:08;1.00;;;1.00;;
8929;SDS011;4500;49.074;9.110;2022-07-29T03:58:36;1.10;;;1.10;;
8929;SDS011;4500;49.074;9.110;2022-07-29T04:01:04;1.63;;;1.53;;
8929;SDS011;4500;49.074;9.110;2022-07-29T04:03:31;7.20;;;6.73;;
8929;SDS011;4500;49.074;9.110;2022-07-29T04:06:02;9.10;;;8.63;;
8929;SDS011;4500;49.074;9.110;2022-07-29T04:08:32;4.50;;;4.30;;
8929;SDS011;4500;49.074;9.110;2022-07-29T04:11:00;8.70;;;8.23;;
8929;SDS011;4500;49.074;9.110;2022-07-29T04:13:27;9.50;;;9.00;;
8929;SDS011;4500;49.074;9.110;2022-07-29T04:15:54;12.60;;;11.93;;
8929;SDS011;4500;49.074;9.110;2022-07-29T04:18:21;11.20;;;10.57;;
8929;SDS011;4500;49.074;9.110;2022-07-29T04:20:49;4.73;;;4.53;;
8929;SDS011;4500;49.074;9.110;2022-07-29T04:23:16;2.60;;;2.50;;
8929;SDS011;4500;49.074;9.110;2022-07-29T04:25:43;1.10;;;1.10;;
8929;SDS011;4500;49.074;9.110;2022-07-29T04:28:10;1.20;;;1.20;;
8929;SDS011;4500;49.074;9.110;2022-07-29T04:30:37;0.90;;;0.90;;
8929;SDS011;4500;49.074;9.110;2022-07-29T04:33:05;1.80;;;1.70;;
8929;SDS011;4500;49.074;9.110;2022-07-29T04:35:34;3.20;;;3.10;;
8929;SDS011;4500;49.074;9.110;2022-07-29T04:38:04;2.30;;;2.20;;
8929;SDS011;4500;49.074;9.110;2022-07-29T04:40:31;5.13;;;4.90;;
8929;SDS011;4500;49.074;9.110;2022-07-29T04:43:00;9.43;;;8.93;;
8929;SDS011;4500;49.074;9.110;2022-07-29T04:45:31;6.20;;;5.90;;
8929;SDS011;4500;49.074;9.110;2022-07-29T04:47:58;11.23;;;10.60;;
8929;SDS011;4500;49.074;9.110;2022-07-29T04:50:25;10.10;;;9.53;;
8929;SDS011;4500;49.074;9.110;2022-07-29T04:52:52;11.43;;;10.80;;
8929;SDS011;4500;49.074;9.110;2022-07-29T04:55:19;5.47;;;5.17;;
8929;SDS011;4500;49.074;9.110;2022-07-29T04:57:46;3.13;;;2.97;;
8929;SDS011;4500;49.074;9.110;2022-07-29T05:00:13;1.33;;;1.33;;
8929;SDS011;4500;49.074;9.110;2022-07-29T05:02:40;1.20;;;1.20;;
8929;SDS011;4500;49.074;9.110;2022-07-29T05:05:07;1.73;;;1.70;;
8929;SDS011;4500;49.074;9.110;2022-07-29T05:07:34;1.83;;;1.73;;
8929;SDS011;4500;49.074;9.110;2022-07-29T05:10:02;5.37;;;5.10;;
8929;SDS011;4500;49.074;9.110;2022-07-29T05:12:29;7.87;;;7.47;;
8929;SDS011;4500;49.074;9.110;2022-07-29T05:14:56;9.77;;;9.23;;
8929;SDS011;4500;49.074;9.110;2022-07-29T05:17:23;10.57;;;9.97;;
8929;SDS011;4500;49.074;9.110;2022-07-29T05:19:50;18.10;;;9.43;;
8929;SDS011;4500;49.074;9.110;2022-07-29T05:22:20;8.17;;;7.70;;
8929;SDS011;4500;49.074;9.110;2022-07-29T05:24:47;8.27;;;7.83;;
8929;SDS011;4500;49.074;9.110;2022-07-29T05:27:14;3.07;;;2.97;;
8929;SDS011;4500;49.074;9.110;2022-07-29T05:29:41;1.10;;;1.10;;
8929;SDS011;4500;49.074;9.110;2022-07-29T05:32:13;1.00;;;1.00;;
8929;SDS011;4500;49.074;9.110;2022-07-29T05:34:41;0.93;;;0.93;;
8929;SDS011;4500;49.074;9.110;2022-07-29T05:37:17;4.87;;;4.50;;
8929;SDS011;4500;49.074;9.110;2022-07-29T05:39:47;2.50;;;2.40;;
8929;SDS011;4500;49.074;9.110;2022-07-29T05:42:21;10.20;;;9.63;;
8929;SDS011;4500;49.074;9.110;2022-07-29T05:44:48;5.67;;;5.37;;
8929;SDS011;4500;49.074;9.110;2022-07-29T05:47:15;2.77;;;2.67;;
8929;SDS011;4500;49.074;9.110;2022-07-29T05:49:42;1.00;;;1.00;;
8929;SDS011;4500;49.074;9.110;2022-07-29T05:52:09;1.53;;;1.53;;
8929;SDS011;4500;49.074;9.110;2022-07-29T05:54:37;0.97;;;0.97;;
8929;SDS011;4500;49.074;9.110;2022-07-29T05:57:03;2.43;;;2.33;;
8929;SDS011;4500;49.074;9.110;2022-07-29T05:59:35;4.60;;;4.40;;
8929;SDS011;4500;49.074;9.110;2022-07-29T06:02:03;3.73;;;3.53;;
8929;SDS011;4500;49.074;9.110;2022-07-29T06:04:31;5.73;;;5.43;;
8929;SDS011;4500;49.074;9.110;2022-07-29T06:07:00;8.47;;;8.03;;
8929;SDS011;4500;49.074;9.110;2022-07-29T06:09:28;9.33;;;8.83;;
8929;SDS011;4500;49.074;9.110;2022-07-29T06:11:55;10.00;;;9.47;;
8929;SDS011;4500;49.074;9.110;2022-07-29T06:14:22;10.67;;;10.10;;
8929;SDS011;4500;49.074;9.110;2022-07-29T06:16:49;5.53;;;5.23;;
8929;SDS011;4500;49.074;9.110;2022-07-29T06:19:16;2.97;;;2.87;;
8929;SDS011;4500;49.074;9.110;2022-07-29T06:21:43;0.80;;;0.80;;
8929;SDS011;4500;49.074;9.110;2022-07-29T06:24:11;1.20;;;1.20;;
8929;SDS011;4500;49.074;9.110;2022-07-29T06:26:39;0.70;;;0.70;;
8929;SDS011;4500;49.074;9.110;2022-07-29T06:29:07;1.70;;;1.70;;
8929;SDS011;4500;49.074;9.110;2022-07-29T06:31:34;1.20;;;1.20;;
8929;SDS011;4500;49.074;9.110;2022-07-29T06:34:01;6.63;;;6.33;;
8929;SDS011;4500;49.074;9.110;2022-07-29T06:36:28;8.60;;;8.13;;
8929;SDS011;4500;49.074;9.110;2022-07-29T06:38:56;10.60;;;10.03;;
8929;SDS011;4500;49.074;9.110;2022-07-29T06:41:23;10.30;;;9.77;;
8929;SDS011;4500;49.074;9.110;2022-07-29T06:43:50;4.70;;;4.50;;
8929;SDS011;4500;49.074;9.110;2022-07-29T06:46:22;10.67;;;10.10;;
8929;SDS011;4500;49.074;9.110;2022-07-29T06:48:50;4.40;;;4.20;;
8929;SDS011;4500;49.074;9.110;2022-07-29T06:51:18;7.33;;;6.97;;
8929;SDS011;4500;49.074;9.110;2022-07-29T06:53:48;5.87;;;5.57;;
8929;SDS011;4500;49.074;9.110;2022-07-29T06:56:28;8.47;;;8.03;;
8929;SDS011;4500;49.074;9.110;2022-07-29T06:58:57;8.20;;;7.80;;
8929;SDS011;4500;49.074;9.110;2022-07-29T07:01:26;7.57;;;7.17;;
8929;SDS011;4500;49.074;9.110;2022-07-29T07:03:53;8.97;;;8.50;;
8929;SDS011;4500;49.074;9.110;2022-07-29T07:06:20;11.17;;;10.50;;
8929;SDS011;4500;49.074;9.110;2022-07-29T07:08:47;6.37;;;6.07;;
8929;SDS011;4500;49.074;9.110;2022-07-29T07:11:14;2.40;;;2.30;;
8929;SDS011;4500;49.074;9.110;2022-07-29T07:13:41;1.30;;;1.30;;
8929;SDS011;4500;49.074;9.110;2022-07-29T07:16:08;1.00;;;1.00;;
8929;SDS011;4500;49.074;9.110;2022-07-29T07:18:35;0.97;;;0.97;;
8929;SDS011;4500;49.074;9.110;2022-07-29T07:21:02;4.30;;;4.10;;
8929;SDS011;4500;49.074;9.110;2022-07-29T07:23:31;6.23;;;5.93;;
8929;SDS011;4500;49.074;9.110;2022-07-29T07:25:58;9.60;;;9.10;;
8929;SDS011;4500;49.074;9.110;2022-07-29T07:28:24;9.83;;;9.33;;
8929;SDS011;4500;49.074;9.110;2022-07-29T07:30:51;9.03;;;8.57;;
8929;SDS011;4500;49.074;9.110;2022-07-29T07:33:18;5.77;;;5.47;;
8929;SDS011;4500;49.074;9.110;2022-07-29T07:35:45;2.80;;;2.70;;
8929;SDS011;4500;49.074;9.110;2022-07-29T07:38:13;1.47;;;1.47;;
8929;SDS011;4500;49.074;9.110;2022-07-29T07:40:40;0.80;;;0.80;;
8929;SDS011;4500;49.074;9.110;2022-07-29T07:43:07;1.30;;;1.30;;
8929;SDS011;4500;49.074;9.110;2022-07-29T07:45:34;1.10;;;1.10;;
8929;SDS011;4500;49.074;9.110;2022-07-29T07:48:04;2.90;;;2.80;;
8929;SDS011;4500;49.074;9.110;2022-07-29T07:50:31;5.67;;;5.37;;
8929;SDS011;4500;49.074;9.110;2022-07-29T07:52:58;8.97;;;8.53;;
8929;SDS011;4500;49.074;9.110;2022-07-29T07:55:25;7.40;;;7.03;;
8929;SDS011;4500;49.074;9.110;2022-07-29T07:57:53;8.77;;;8.33;;
8929;SDS011;4500;49.074;9.110;2022-07-29T08:00:21;9.33;;;8.87;;
8929;SDS011;4500;49.074;9.110;2022-07-29T08:02:49;5.53;;;5.23;;
8929;SDS011;4500;49.074;9.110;2022-07-29T08:05:17;2.33;;;2.23;;
8929;SDS011;4500;49.074;9.110;2022-07-29T08:07:47;1.30;;;1.30;;
8929;SDS011;4500;49.074;9.110;2022-07-29T08:10:14;1.40;;;1.40;;
8929;SDS011;4500;49.074;9.110;2022-07-29T08:13:06;4.40;;;4.20;;
8929;SDS011;4500;49.074;9.110;2022-07-29T08:15:34;2.20;;;2.10;;
8929;SDS011;4500;49.074;9.110;2022-07-29T08:18:01;6.27;;;5.97;;
8929;SDS011;4500;49.074;9.110;2022-07-29T08:20:34;1.63;;;1.57;;
8929;SDS011;4500;49.074;9.110;2022-07-29T08:23:02;5.00;;;4.80;;
8929;SDS011;4500;49.074;9.110;2022-07-29T08:25:30;7.07;;;6.73;;
8929;SDS011;4500;49.074;9.110;2022-07-29T08:27:59;7.70;;;7.33;;
8929;SDS011;4500;49.074;9.110;2022-07-29T08:30:26;6.97;;;6.63;;
8929;SDS011;4500;49.074;9.110;2022-07-29T08:32:53;8.33;;;7.93;;
8929;SDS011;4500;49.074;9.110;2022-07-29T08:35:22;8.67;;;8.23;;
8929;SDS011;4500;49.074;9.110;2022-07-29T08:37:49;3.87;;;3.67;;
8929;SDS011;4500;49.074;9.110;2022-07-29T08:40:17;2.93;;;2.80;;
8929;SDS011;4500;49.074;9.110;2022-07-29T08:42:44;1.30;;;1.30;;
8929;SDS011;4500;49.074;9.110;2022-07-29T08:45:11;1.37;;;1.37;;
8929;SDS011;4500;49.074;9.110;2022-07-29T08:47:39;1.00;;;1.00;;
8929;SDS011;4500;49.074;9.110;2022-07-29T08:50:09;1.30;;;1.30;;
8929;SDS011;4500;49.074;9.110;2022-07-29T08:52:37;1.00;;;1.00;;
8929;SDS011;4500;49.074;9.110;2022-07-29T08:55:06;1.43;;;1.43;;
8929;SDS011;4500;49.074;9.110;2022-07-29T08:57:34;1.00;;;1.00;;
8929;SDS011;4500;49.074;9.110;2022-07-29T09:00:03;3.63;;;3.50;;
8929;SDS011;4500;49.074;9.110;2022-07-29T09:02:40;1.00;;;1.00;;
8929;SDS011;4500;49.074;9.110;2022-07-29T09:05:12;2.63;;;2.40;;
8929;SDS011;4500;49.074;9.110;2022-07-29T09:07:39;1.10;;;1.10;;
8929;SDS011;4500;49.074;9.110;2022-07-29T09:10:09;0.70;;;0.70;;
8929;SDS011;4500;49.074;9.110;2022-07-29T09:12:36;0.90;;;0.90;;
8929;SDS011;4500;49.074;9.110;2022-07-29T09:15:04;3.00;;;2.90;;
8929;SDS011;4500;49.074;9.110;2022-07-29T09:20:15;0.80;;;0.80;;
8929;SDS011;4500;49.074;9.110;2022-07-29T09:22:43;0.80;;;0.80;;
8929;SDS011;4500;49.074;9.110;2022-07-29T09:25:31;2.40;;;2.30;;
8929;SDS011;4500;49.074;9.110;2022-07-29T09:28:12;5.00;;;4.80;;
8929;SDS011;4500;49.074;9.110;2022-07-29T09:30:55;0.80;;;0.80;;
8929;SDS011;4500;49.074;9.110;2022-07-29T09:33:30;9.17;;;8.70;;
8929;SDS011;4500;49.074;9.110;2022-07-29T09:36:05;7.33;;;7.00;;
8929;SDS011;4500;49.074;9.110;2022-07-29T09:38:33;2.60;;;2.50;;
8929;SDS011;4500;49.074;9.110;2022-07-29T09:41:02;6.37;;;6.07;;
8929;SDS011;4500;49.074;9.110;2022-07-29T09:43:32;4.73;;;4.53;;
8929;SDS011;4500;49.074;9.110;2022-07-29T09:46:12;7.27;;;6.93;;
8929;SDS011;4500;49.074;9.110;2022-07-29T09:48:40;0.80;;;0.80;;
8929;SDS011;4500;49.074;9.110;2022-07-29T09:51:20;1.63;;;1.63;;
8929;SDS011;4500;49.074;9.110;2022-07-29T09:54:20;3.90;;;3.73;;
8929;SDS011;4500;49.074;9.110;2022-07-29T09:56:49;4.63;;;4.43;;
8929;SDS011;4500;49.074;9.110;2022-07-29T09:59:16;2.40;;;2.30;;
8929;SDS011;4500;49.074;9.110;2022-07-29T10:01:43;0.90;;;0.90;;
8929;SDS011;4500;49.074;9.110;2022-07-29T10:04:10;0.93;;;0.93;;
8929;SDS011;4500;49.074;9.110;2022-07-29T10:09:30;6.80;;;6.50;;
8929;SDS011;4500;49.074;9.110;2022-07-29T10:14:33;7.37;;;7.03;;
8929;SDS011;4500;49.074;9.110;2022-07-29T10:17:01;6.80;;;6.50;;
8929;SDS011;4500;49.074;9.110;2022-07-29T10:19:29;6.40;;;6.10;;
8929;SDS011;4500;49.074;9.110;2022-07-29T10:21:57;7.33;;;7.00;;
8929;SDS011;4500;49.074;9.110;2022-07-29T10:24:26;6.53;;;6.23;;
8929;SDS011;4500;49.074;9.110;2022-07-29T10:26:55;8.93;;;8.53;;
8929;SDS011;4500;49.074;9.110;2022-07-29T10:29:23;6.80;;;6.47;;
8929;SDS011;4500;49.074;9.110;2022-07-29T10:32:06;9.47;;;8.97;;
8929;SDS011;4500;49.074;9.110;2022-07-29T10:40:17;1.67;;;1.57;;
8929;SDS011;4500;49.074;9.110;2022-07-29T10:43:30;6.60;;;6.30;;
8929;SDS011;4500;49.074;9.110;2022-07-29T10:46:03;4.30;;;4.10;;
8929;SDS011;4500;49.074;9.110;2022-07-29T10:48:32;4.13;;;3.97;;
8929;SDS011;4500;49.074;9.110;2022-07-29T10:51:01;7.20;;;6.90;;
8929;SDS011;4500;49.074;9.110;2022-07-29T10:53:51;3.90;;;3.70;;
8929;SDS011;4500;49.074;9.110;2022-07-29T10:56:23;4.70;;;4.50;;
8929;SDS011;4500;49.074;9.110;2022-07-29T11:01:49;2.30;;;2.23;;
8929;SDS011;4500;49.074;9.110;2022-07-29T11:07:29;7.33;;;6.97;;
8929;SDS011;4500;49.074;9.110;2022-07-29T11:15:16;0.83;;;0.83;;
8929;SDS011;4500;49.074;9.110;2022-07-29T11:20:31;7.90;;;7.50;;
8929;SDS011;4500;49.074;9.110;2022-07-29T11:22:59;7.07;;;6.73;;
8929;SDS011;4500;49.074;9.110;2022-07-29T11:25:26;6.53;;;6.23;;
8929;SDS011;4500;49.074;9.110;2022-07-29T11:28:15;1.10;;;1.10;;
8929;SDS011;4500;49.074;9.110;2022-07-29T11:30:52;5.17;;;4.93;;
8929;SDS011;4500;49.074;9.110;2022-07-29T11:33:33;3.13;;;3.03;;
8929;SDS011;4500;49.074;9.110;2022-07-29T11:36:20;3.53;;;3.37;;
8929;SDS011;4500;49.074;9.110;2022-07-29T11:39:04;6.33;;;6.03;;
8929;SDS011;4500;49.074;9.110;2022-07-29T11:45:09;7.10;;;6.80;;
8929;SDS011;4500;49.074;9.110;2022-07-29T11:48:05;1.70;;;1.60;;
8929;SDS011;4500;49.074;9.110;2022-07-29T11:50:52;7.90;;;7.53;;
8929;SDS011;4500;49.074;9.110;2022-07-29T11:53:19;3.23;;;3.13;;
8929;SDS011;4500;49.074;9.110;2022-07-29T11:55:47;2.60;;;2.53;;
8929;SDS011;4500;49.074;9.110;2022-07-29T11:58:23;6.03;;;5.73;;
8929;SDS011;4500;49.074;9.110;2022-07-29T12:00:52;6.10;;;5.80;;
8929;SDS011;4500;49.074;9.110;2022-07-29T12:03:25;5.47;;;5.23;;
8929;SDS011;4500;49.074;9.110;2022-07-29T12:06:01;6.07;;;5.77;;
8929;SDS011;4500;49.074;9.110;2022-07-29T12:08:46;2.17;;;2.07;;
8929;SDS011;4500;49.074;9.110;2022-07-29T12:11:17;0.80;;;0.80;;
8929;SDS011;4500;49.074;9.110;2022-07-29T12:13:46;1.97;;;1.90;;
8929;SDS011;4500;49.074;9.110;2022-07-29T12:16:14;1.27;;;1.27;;
8929;SDS011;4500;49.074;9.110;2022-07-29T12:18:56;6.47;;;6.17;;
8929;SDS011;4500;49.074;9.110;2022-07-29T12:21:28;6.03;;;5.73;;
8929;SDS011;4500;49.074;9.110;2022-07-29T12:24:04;2.33;;;2.23;;
8929;SDS011;4500;49.074;9.110;2022-07-29T12:26:35;1.10;;;1.10;;
8929;SDS011;4500;49.074;9.110;2022-07-29T12:29:05;1.40;;;1.40;;
8929;SDS011;4500;49.074;9.110;2022-07-29T12:31:36;0.90;;;0.90;;
8929;SDS011;4500;49.074;9.110;2022-07-29T12:34:10;1.40;;;1.40;;
8929;SDS011;4500;49.074;9.110;2022-07-29T12:36:38;0.90;;;0.90;;
8929;SDS011;4500;49.074;9.110;2022-07-29T12:39:06;1.47;;;1.47;;
8929;SDS011;4500;49.074;9.110;2022-07-29T12:41:35;1.17;;;1.17;;
8929;SDS011;4500;49.074;9.110;2022-07-29T12:44:02;4.43;;;4.23;;
8929;SDS011;4500;49.074;9.110;2022-07-29T12:46:29;6.23;;;5.93;;
8929;SDS011;4500;49.074;9.110;2022-07-29T12:48:56;6.20;;;5.90;;
8929;SDS011;4500;49.074;9.110;2022-07-29T12:51:28;7.77;;;7.40;;
8929;SDS011;4500;49.074;9.110;2022-07-29T12:56:38;0.80;;;0.80;;
8929;SDS011;4500;49.074;9.110;2022-07-29T12:59:14;1.00;;;1.00;;
8929;SDS011;4500;49.074;9.110;2022-07-29T13:01:43;1.13;;;1.13;;
8929;SDS011;4500;49.074;9.110;2022-07-29T13:04:10;0.80;;;0.80;;
8929;SDS011;4500;49.074;9.110;2022-07-29T13:06:44;0.70;;;0.70;;
8929;SDS011;4500;49.074;9.110;2022-07-29T13:09:17;2.07;;;2.00;;
8929;SDS011;4500;49.074;9.110;2022-07-29T13:11:46;2.20;;;2.13;;
8929;SDS011;4500;49.074;9.110;2022-07-29T13:14:59;0.83;;;0.83;;
8929;SDS011;4500;49.074;9.110;2022-07-29T13:20:06;6.60;;;6.30;;
8929;SDS011;4500;49.074;9.110;2022-07-29T13:22:38;0.90;;;0.90;;
8929;SDS011;4500;49.074;9.110;2022-07-29T13:25:06;1.43;;;1.43;;
8929;SDS011;4500;49.074;9.110;2022-07-29T13:27:34;2.33;;;2.23;;
8929;SDS011;4500;49.074;9.110;2022-07-29T13:30:05;1.50;;;1.50;;
8929;SDS011;4500;49.074;9.110;2022-07-29T13:32:34;2.00;;;1.90;;
8929;SDS011;4500;49.074;9.110;2022-07-29T13:35:04;3.97;;;3.80;;
8929;SDS011;4500;49.074;9.110;2022-07-29T13:37:33;4.77;;;4.57;;
8929;SDS011;4500;49.074;9.110;2022-07-29T13:40:01;5.50;;;5.30;;
8929;SDS011;4500;49.074;9.110;2022-07-29T13:42:30;7.00;;;6.70;;
8929;SDS011;4500;49.074;9.110;2022-07-29T13:44:58;7.03;;;6.73;;
8929;SDS011;4500;49.074;9.110;2022-07-29T13:47:26;7.00;;;6.70;;
8929;SDS011;4500;49.074;9.110;2022-07-29T13:49:58;7.63;;;7.30;;
8929;SDS011;4500;49.074;9.110;2022-07-29T13:52:27;6.60;;;6.23;;
8929;SDS011;4500;49.074;9.110;2022-07-29T13:54:54;9.90;;;9.43;;
8929;SDS011;4500;49.074;9.110;2022-07-29T13:57:21;6.00;;;5.70;;
8929;SDS011;4500;49.074;9.110;2022-07-29T13:59:48;4.93;;;4.73;;
8929;SDS011;4500;49.074;9.110;2022-07-29T14:02:19;4.13;;;3.93;;
8929;SDS011;4500;49.074;9.110;2022-07-29T14:04:51;5.93;;;5.63;;
8929;SDS011;4500;49.074;9.110;2022-07-29T14:07:21;6.70;;;6.27;;
8929;SDS011;4500;49.074;9.110;2022-07-29T14:09:49;4.60;;;4.40;;
8929;SDS011;4500;49.074;9.110;2022-07-29T14:12:16;2.27;;;2.17;;
8929;SDS011;4500;49.074;9.110;2022-07-29T14:14:43;1.40;;;1.40;;
8929;SDS011;4500;49.074;9.110;2022-07-29T14:17:12;1.20;;;1.20;;
8929;SDS011;4500;49.074;9.110;2022-07-29T14:19:40;0.70;;;0.70;;
8929;SDS011;4500;49.074;9.110;2022-07-29T14:22:08;1.47;;;1.47;;
8929;SDS011;4500;49.074;9.110;2022-07-29T14:24:36;0.90;;;0.90;;
8929;SDS011;4500;49.074;9.110;2022-07-29T14:27:05;2.60;;;2.50;;
8929;SDS011;4500;49.074;9.110;2022-07-29T14:29:33;3.70;;;3.57;;
8929;SDS011;4500;49.074;9.110;2022-07-29T14:32:04;3.07;;;2.97;;
8929;SDS011;4500;49.074;9.110;2022-07-29T14:34:33;3.03;;;2.93;;
8929;SDS011;4500;49.074;9.110;2022-07-29T14:37:00;7.00;;;6.67;;
8929;SDS011;4500;49.074;9.110;2022-07-29T14:39:29;6.53;;;6.23;;
8929;SDS011;4500;49.074;9.110;2022-07-29T14:41:57;6.77;;;6.47;;
8929;SDS011;4500;49.074;9.110;2022-07-29T14:44:24;8.60;;;8.20;;
8929;SDS011;4500;49.074;9.110;2022-07-29T14:46:58;6.50;;;6.20;;
8929;SDS011;4500;49.074;9.110;2022-07-29T14:49:26;6.10;;;5.80;;
8929;SDS011;4500;49.074;9.110;2022-07-29T14:51:53;6.00;;;5.73;;
8929;SDS011;4500;49.074;9.110;2022-07-29T14:54:21;5.10;;;4.90;;
8929;SDS011;4500;49.074;9.110;2022-07-29T14:56:47;2.63;;;2.53;;
8929;SDS011;4500;49.074;9.110;2022-07-29T14:59:17;1.73;;;1.67;;
8929;SDS011;4500;49.074;9.110;2022-07-29T15:01:44;1.00;;;1.00;;
8929;SDS011;4500;49.074;9.110;2022-07-29T15:04:11;1.07;;;1.07;;
8929;SDS011;4500;49.074;9.110;2022-07-29T15:06:39;1.00;;;1.00;;
8929;SDS011;4500;49.074;9.110;2022-07-29T15:09:06;1.33;;;1.33;;
8929;SDS011;4500;49.074;9.110;2022-07-29T15:11:33;2.80;;;2.70;;
8929;SDS011;4500;49.074;9.110;2022-07-29T15:14:04;2.10;;;2.00;;
8929;SDS011;4500;49.074;9.110;2022-07-29T15:16:32;4.37;;;4.17;;
8929;SDS011;4500;49.074;9.110;2022-07-29T15:19:01;5.83;;;5.60;;
8929;SDS011;4500;49.074;9.110;2022-07-29T15:21:28;6.60;;;6.30;;
8929;SDS011;4500;49.074;9.110;2022-07-29T15:23:55;6.63;;;6.33;;
8929;SDS011;4500;49.074;9.110;2022-07-29T15:26:22;6.10;;;5.80;;
8929;SDS011;4500;49.074;9.110;2022-07-29T15:28:49;4.47;;;4.27;;
8929;SDS011;4500;49.074;9.110;2022-07-29T15:31:16;2.50;;;2.40;;
8929;SDS011;4500;49.074;9.110;2022-07-29T15:33:45;1.67;;;1.60;;
8929;SDS011;4500;49.074;9.110;2022-07-29T15:36:12;0.90;;;0.90;;
8929;SDS011;4500;49.074;9.110;2022-07-29T15:38:59;6.53;;;6.23;;
8929;SDS011;4500;49.074;9.110;2022-07-29T15:41:27;6.00;;;5.70;;
8929;SDS011;4500;49.074;9.110;2022-07-29T15:43:54;7.00;;;6.70;;
8929;SDS011;4500;49.074;9.110;2022-07-29T15:46:21;5.57;;;5.30;;
8929;SDS011;4500;49.074;9.110;2022-07-29T15:49:06;1.33;;;1.33;;
8929;SDS011;4500;49.074;9.110;2022-07-29T15:51:34;1.73;;;1.73;;
8929;SDS011;4500;49.074;9.110;2022-07-29T15:54:01;6.30;;;6.00;;
8929;SDS011;4500;49.074;9.110;2022-07-29T15:56:29;6.20;;;5.90;;
8929;SDS011;4500;49.074;9.110;2022-07-29T15:58:57;6.00;;;5.70;;
8929;SDS011;4500;49.074;9.110;2022-07-29T16:01:24;6.17;;;5.87;;
8929;SDS011;4500;49.074;9.110;2022-07-29T16:03:51;5.17;;;4.97;;
8929;SDS011;4500;49.074;9.110;2022-07-29T16:06:19;5.17;;;4.97;;
8929;SDS011;4500;49.074;9.110;2022-07-29T16:08:46;2.40;;;2.30;;
8929;SDS011;4500;49.074;9.110;2022-07-29T16:11:13;0.77;;;0.77;;
8929;SDS011;4500;49.074;9.110;2022-07-29T16:13:40;0.87;;;0.87;;
8929;SDS011;4500;49.074;9.110;2022-07-29T16:16:07;1.30;;;1.30;;
8929;SDS011;4500;49.074;9.110;2022-07-29T16:18:34;1.90;;;1.80;;
8929;SDS011;4500;49.074;9.110;2022-07-29T16:21:01;6.30;;;6.00;;
8929;SDS011;4500;49.074;9.110;2022-07-29T16:23:28;6.60;;;6.30;;
8929;SDS011;4500;49.074;9.110;2022-07-29T16:25:55;6.80;;;6.50;;
8929;SDS011;4500;49.074;9.110;2022-07-29T16:28:25;6.60;;;6.30;;
8929;SDS011;4500;49.074;9.110;2022-07-29T16:30:53;8.20;;;7.80;;